Time;durP1;ratioP1;P1;durP2;ratioP2;P2;SDS_P1;SDS_P2;PMS_P1;PMS_P2;Temp;Humidity;BMP_temperature;BMP_pressure;BME280_temperature;BME280_humidity;BME280_pressure;Samples;Min_cycle;Max_cycle;Signal;HPM_P1;HPM_P2
2023/04/03 00:01:16;;;;;;;1.73;1.13;;;5.20;1.00;;;;;;5041029;28;20538;-54
2023/04/03 00:03:42;;;;;;;2.80;1.10;;;5.10;1.00;;;;;;5045583;28;20455;-55
2023/04/03 00:06:10;;;;;;;3.10;1.43;;;4.90;1.00;;;;;;5043161;28;20487;-56
2023/04/03 00:08:37;;;;;;;3.27;1.37;;;5.00;1.00;;;;;;5048673;28;20451;-54
2023/04/03 00:11:04;;;;;;;3.83;1.50;;;5.00;1.00;;;;;;5048168;28;21047;-54
2023/04/03 00:13:30;;;;;;;4.60;1.40;;;5.00;1.00;;;;;;5043407;28;21249;-54
2023/04/03 00:15:56;;;;;;;2.23;1.10;;;5.10;1.00;;;;;;5047954;28;20466;-55
2023/04/03 00:18:22;;;;;;;1.70;1.20;;;5.10;1.00;;;;;;5047926;28;20474;-55
2023/04/03 00:20:48;;;;;;;2.67;1.37;;;5.00;1.00;;;;;;5044785;28;20231;-54
2023/04/03 00:23:14;;;;;;;4.50;1.17;;;5.00;1.00;;;;;;5047759;28;21082;-55
2023/04/03 00:25:40;;;;;;;4.00;1.40;;;5.00;1.00;;;;;;5040987;28;20884;-54
2023/04/03 00:28:06;;;;;;;2.03;1.43;;;4.90;1.00;;;;;;5043514;28;20446;-56
2023/04/03 00:30:32;;;;;;;4.10;1.40;;;4.90;1.00;;;;;;5042068;28;20455;-55
2023/04/03 00:32:57;;;;;;;3.73;1.40;;;4.90;1.00;;;;;;5033342;28;20726;-54
2023/04/03 00:35:24;;;;;;;5.03;2.07;;;5.00;1.00;;;;;;5035650;28;20467;-55
2023/04/03 00:37:54;;;;;;;3.47;1.23;;;5.00;1.00;;;;;;5037462;28;20204;-54
2023/04/03 00:40:22;;;;;;;2.93;1.43;;;5.10;1.00;;;;;;5042646;28;20470;-53
2023/04/03 00:42:51;;;;;;;3.67;1.40;;;5.00;1.00;;;;;;5043267;28;21254;-54
2023/04/03 00:45:34;;;;;;;4.87;2.03;;;5.10;1.00;;;;;;5046012;28;20512;-54
2023/04/03 00:48:01;;;;;;;3.80;1.60;;;5.10;1.00;;;;;;5043831;28;20448;-54
2023/04/03 00:50:29;;;;;;;4.10;1.43;;;5.30;1.00;;;;;;5044997;28;20447;-53
2023/04/03 00:52:56;;;;;;;3.03;1.33;;;5.20;1.00;;;;;;5045931;28;20809;-55
2023/04/03 00:55:22;;;;;;;4.53;1.50;;;5.10;1.00;;;;;;5042503;28;20478;-56
2023/04/03 00:57:48;;;;;;;1.90;1.30;;;5.00;1.00;;;;;;5055300;28;20459;-54
2023/04/03 01:00:18;;;;;;;4.03;1.80;;;4.90;1.00;;;;;;5033066;28;20990;-53
2023/04/03 01:02:43;;;;;;;3.60;1.20;;;4.90;1.00;;;;;;5039586;28;20443;-55
2023/04/03 01:05:09;;;;;;;3.47;1.57;;;4.90;1.00;;;;;;5036897;28;21616;-55
2023/04/03 01:07:36;;;;;;;3.63;1.77;;;4.90;1.00;;;;;;5036357;28;20655;-53
2023/04/03 01:10:06;;;;;;;2.93;1.67;;;5.00;1.00;;;;;;5036142;28;20474;-54
2023/04/03 01:12:36;;;;;;;2.00;1.30;;;5.00;1.00;;;;;;5035358;28;20443;-56
2023/04/03 01:15:07;;;;;;;2.73;1.53;;;4.90;1.00;;;;;;5036573;28;20968;-55
2023/04/03 01:17:35;;;;;;;4.00;1.53;;;5.00;1.00;;;;;;5033395;28;21940;-53
2023/04/03 01:20:23;;;;;;;3.33;1.90;;;4.90;1.00;;;;;;5038654;28;20565;-55
2023/04/03 01:23:13;;;;;;;2.73;1.10;;;5.00;1.00;;;;;;5035289;28;20443;-54
2023/04/03 01:25:43;;;;;;;4.70;1.67;;;5.00;1.00;;;;;;5042855;28;20462;-56
2023/04/03 01:28:12;;;;;;;4.63;1.70;;;5.00;1.00;;;;;;5038741;28;21146;-55
2023/04/03 01:30:47;;;;;;;5.53;1.43;;;5.00;1.00;;;;;;5045059;28;20932;-54
2023/04/03 01:33:13;;;;;;;4.47;1.70;;;5.00;1.00;;;;;;5049915;28;20487;-55
2023/04/03 01:35:38;;;;;;;3.20;1.40;;;5.00;1.00;;;;;;5043469;28;20506;-55
2023/04/03 01:38:04;;;;;;;3.20;1.43;;;5.10;1.00;;;;;;5043913;28;20243;-53
2023/04/03 01:40:30;;;;;;;3.63;1.40;;;5.00;1.00;;;;;;5048548;28;20250;-54
2023/04/03 01:42:55;;;;;;;4.27;1.40;;;4.90;1.00;;;;;;5043922;28;20494;-56
2023/04/03 01:45:21;;;;;;;4.07;1.60;;;4.90;1.00;;;;;;5043894;28;20694;-56
2023/04/03 01:47:47;;;;;;;3.73;1.40;;;5.00;1.00;;;;;;5042732;28;20189;-54
2023/04/03 01:50:12;;;;;;;3.13;1.40;;;4.80;1.00;;;;;;5040332;28;20200;-55
2023/04/03 01:52:38;;;;;;;2.40;1.30;;;4.60;1.00;;;;;;5047527;28;20193;-54
2023/04/03 01:55:04;;;;;;;4.87;1.60;;;4.60;1.00;;;;;;5041050;28;20715;-54
2023/04/03 01:57:30;;;;;;;3.07;1.30;;;4.70;1.00;;;;;;5044290;28;20638;-56
2023/04/03 01:59:55;;;;;;;2.80;1.30;;;4.60;1.00;;;;;;5046571;28;20455;-54
2023/04/03 02:02:21;;;;;;;9.70;2.00;;;4.50;1.00;;;;;;5048392;28;20260;-55
2023/04/03 02:04:47;;;;;;;5.17;1.40;;;4.30;1.00;;;;;;5041990;28;20191;-54
2023/04/03 02:07:12;;;;;;;4.20;1.40;;;4.20;1.00;;;;;;5040436;28;20216;-54
2023/04/03 02:09:38;;;;;;;1.73;1.10;;;4.20;1.00;;;;;;5045797;28;20191;-54
2023/04/03 02:12:03;;;;;;;4.23;1.83;;;4.30;1.00;;;;;;5040477;28;20307;-54
2023/04/03 02:14:29;;;;;;;5.60;2.10;;;4.20;1.00;;;;;;5045206;28;20199;-55
2023/04/03 02:16:55;;;;;;;3.37;1.53;;;4.20;1.00;;;;;;5047623;28;20250;-54
2023/04/03 02:19:21;;;;;;;3.30;2.30;;;4.20;1.00;;;;;;5039684;28;20331;-56
2023/04/03 02:21:46;;;;;;;2.47;1.30;;;4.20;1.00;;;;;;5045737;28;20189;-54
2023/04/03 02:24:12;;;;;;;3.00;1.43;;;4.00;1.00;;;;;;5041500;28;20173;-54
2023/04/03 02:26:37;;;;;;;6.90;1.50;;;4.00;1.00;;;;;;5035771;28;20196;-54
2023/04/03 02:29:03;;;;;;;3.93;1.70;;;4.00;1.00;;;;;;5030933;28;20710;-53
2023/04/03 02:31:29;;;;;;;2.93;1.70;;;4.10;1.00;;;;;;5045399;28;20201;-53
2023/04/03 02:33:54;;;;;;;3.17;1.60;;;4.10;1.00;;;;;;5045323;28;20591;-54
2023/04/03 02:36:20;;;;;;;3.60;1.83;;;4.00;1.00;;;;;;5045112;28;20208;-54
2023/04/03 02:38:45;;;;;;;4.63;2.10;;;3.90;1.00;;;;;;5040012;28;20186;-54
2023/04/03 02:41:12;;;;;;;1.40;1.20;;;3.80;1.00;;;;;;5042618;28;20188;-54
2023/04/03 02:43:38;;;;;;;3.30;1.67;;;3.70;1.00;;;;;;5044436;28;20208;-54
2023/04/03 02:46:05;;;;;;;4.10;2.70;;;3.60;1.00;;;;;;5042511;28;20930;-54
2023/04/03 02:48:30;;;;;;;3.50;1.30;;;3.60;1.00;;;;;;5045708;28;20521;-55
2023/04/03 02:50:56;;;;;;;4.97;2.10;;;3.60;1.00;;;;;;5040583;28;20593;-54
2023/04/03 02:53:22;;;;;;;4.00;1.40;;;3.50;1.00;;;;;;5045111;28;20184;-54
2023/04/03 02:55:48;;;;;;;4.23;1.40;;;3.40;1.00;;;;;;5042059;28;20545;-56
2023/04/03 02:58:14;;;;;;;2.80;1.70;;;3.50;1.00;;;;;;5037548;28;20443;-55
2023/04/03 03:00:40;;;;;;;4.00;1.50;;;3.50;1.00;;;;;;5043293;28;20283;-54
2023/04/03 03:03:06;;;;;;;3.10;0.90;;;3.50;1.00;;;;;;5046089;28;20725;-54
2023/04/03 03:05:32;;;;;;;3.70;1.63;;;3.40;1.00;;;;;;5046700;28;20294;-54
2023/04/03 03:07:58;;;;;;;2.87;1.63;;;3.30;1.00;;;;;;5036351;28;20461;-56
2023/04/03 03:10:23;;;;;;;3.73;1.20;;;3.20;1.00;;;;;;5040326;28;20443;-55
2023/04/03 03:12:49;;;;;;;6.03;1.40;;;3.20;1.00;;;;;;5047586;28;20202;-53
2023/04/03 03:15:16;;;;;;;2.40;1.63;;;3.10;1.00;;;;;;5041419;28;20454;-54
2023/04/03 03:17:41;;;;;;;4.13;1.20;;;3.10;1.00;;;;;;5041351;28;20193;-53
2023/04/03 03:20:07;;;;;;;1.83;1.10;;;3.10;1.00;;;;;;5038006;28;20443;-55
2023/04/03 03:22:34;;;;;;;3.00;1.80;;;3.00;1.00;;;;;;5043661;28;20283;-54
2023/04/03 03:25:00;;;;;;;2.23;1.13;;;2.90;1.00;;;;;;5036586;28;20464;-54
2023/04/03 03:27:26;;;;;;;15.30;2.30;;;2.90;1.00;;;;;;5040114;28;20474;-54
2023/04/03 03:29:52;;;;;;;1.50;1.40;;;2.90;1.00;;;;;;5042741;28;20873;-55
2023/04/03 03:32:18;;;;;;;2.90;1.73;;;2.90;1.00;;;;;;5035250;28;21180;-56
2023/04/03 03:34:43;;;;;;;2.77;1.33;;;2.90;1.00;;;;;;5031962;28;20466;-56
2023/04/03 03:37:09;;;;;;;1.50;1.40;;;2.90;1.00;;;;;;5045550;28;20216;-54
2023/04/03 03:39:35;;;;;;;2.77;1.20;;;2.80;1.00;;;;;;5038453;28;20196;-56
2023/04/03 03:42:01;;;;;;;2.80;1.23;;;2.70;1.00;;;;;;5044366;28;20573;-54
2023/04/03 03:44:28;;;;;;;1.67;1.00;;;2.60;1.00;;;;;;5046167;28;20550;-54
2023/04/03 03:46:54;;;;;;;5.80;1.60;;;2.50;1.00;;;;;;5046432;28;20550;-56
2023/04/03 03:49:20;;;;;;;2.23;1.00;;;2.40;1.00;;;;;;5029919;28;20454;-53
2023/04/03 03:51:45;;;;;;;5.23;1.47;;;2.70;1.00;;;;;;5046507;28;20203;-54
2023/04/03 03:54:11;;;;;;;3.40;1.73;;;2.30;1.00;;;;;;5038779;28;20248;-54
2023/04/03 03:56:37;;;;;;;2.30;1.13;;;2.20;1.00;;;;;;5044804;28;20216;-54
2023/04/03 03:59:02;;;;;;;4.10;1.20;;;2.20;1.00;;;;;;5046876;28;20688;-53
2023/04/03 04:01:28;;;;;;;4.70;1.57;;;2.20;1.00;;;;;;5041872;28;20189;-52
2023/04/03 04:03:55;;;;;;;6.30;2.07;;;2.20;1.00;;;;;;5034087;28;20232;-53
2023/04/03 04:06:21;;;;;;;4.33;2.03;;;2.10;1.00;;;;;;5042844;28;20439;-54
2023/04/03 04:08:46;;;;;;;4.23;3.40;;;2.00;1.00;;;;;;5044578;28;21065;-53
2023/04/03 04:11:12;;;;;;;8.70;3.33;;;2.10;1.00;;;;;;5041981;28;20455;-55
2023/04/03 04:13:38;;;;;;;2.47;1.70;;;2.10;1.00;;;;;;5044746;28;20673;-54
2023/04/03 04:16:05;;;;;;;3.70;2.23;;;2.20;1.00;;;;;;5042080;28;20470;-54
2023/04/03 04:18:30;;;;;;;6.20;1.70;;;2.20;1.00;;;;;;5039015;28;20226;-56
2023/04/03 04:20:56;;;;;;;4.07;1.73;;;2.20;1.00;;;;;;5037028;28;20980;-55
2023/04/03 04:23:21;;;;;;;3.10;1.90;;;2.10;1.00;;;;;;5039136;28;20193;-54
2023/04/03 04:25:48;;;;;;;2.70;1.40;;;2.20;1.00;;;;;;5048037;28;20736;-55
2023/04/03 04:28:15;;;;;;;3.77;2.30;;;2.20;1.00;;;;;;5038934;28;20185;-54
2023/04/03 04:30:41;;;;;;;4.90;2.13;;;2.10;1.00;;;;;;5040459;28;20578;-55
2023/04/03 04:33:07;;;;;;;6.53;2.80;;;2.10;1.00;;;;;;5046586;28;20533;-55
2023/04/03 04:35:33;;;;;;;8.00;2.20;;;2.20;1.00;;;;;;5048967;28;20975;-53
2023/04/03 04:37:59;;;;;;;4.37;2.57;;;2.20;1.00;;;;;;5039816;28;20188;-54
2023/04/03 04:40:25;;;;;;;3.60;2.07;;;2.30;1.00;;;;;;5044104;28;20442;-55
2023/04/03 04:42:51;;;;;;;4.90;2.10;;;2.20;1.00;;;;;;5053092;28;20442;-55
2023/04/03 04:45:16;;;;;;;6.20;2.90;;;2.10;1.00;;;;;;5050405;28;20443;-56
2023/04/03 04:47:42;;;;;;;6.33;2.87;;;2.10;1.00;;;;;;5045925;28;20543;-53
2023/04/03 04:50:08;;;;;;;5.07;2.67;;;2.10;1.00;;;;;;5044210;28;20454;-53
2023/04/03 04:52:34;;;;;;;3.60;2.90;;;2.20;1.00;;;;;;5046229;28;20670;-54
2023/04/03 04:55:00;;;;;;;6.30;2.80;;;2.30;1.00;;;;;;5045536;28;20475;-55
2023/04/03 04:57:25;;;;;;;7.03;2.93;;;2.30;1.00;;;;;;5042248;28;20306;-54
2023/04/03 04:59:51;;;;;;;3.67;2.40;;;2.20;1.00;;;;;;5035589;28;20272;-55
2023/04/03 05:02:17;;;;;;;9.23;2.77;;;2.20;1.00;;;;;;5038295;28;20197;-55
2023/04/03 05:04:42;;;;;;;5.03;2.50;;;2.20;1.00;;;;;;5037244;28;20199;-54
2023/04/03 05:07:08;;;;;;;7.03;2.77;;;2.20;1.00;;;;;;5034300;28;20201;-53
2023/04/03 05:09:34;;;;;;;9.07;3.37;;;2.20;1.00;;;;;;5036000;28;20224;-53
2023/04/03 05:12:00;;;;;;;7.80;2.67;;;2.20;1.00;;;;;;5042741;28;20585;-55
2023/04/03 05:14:25;;;;;;;8.13;4.20;;;2.20;1.00;;;;;;5049694;28;20192;-55
2023/04/03 05:16:54;;;;;;;5.73;2.73;;;2.10;1.00;;;;;;5049496;28;20481;-54
2023/04/03 05:19:20;;;;;;;7.57;2.00;;;2.20;1.00;;;;;;5051232;28;20193;-52
2023/04/03 05:21:46;;;;;;;4.43;2.33;;;2.30;1.00;;;;;;5050318;28;20441;-54
2023/04/03 05:24:12;;;;;;;4.27;2.03;;;2.20;1.00;;;;;;5051327;28;20516;-52
2023/04/03 05:26:38;;;;;;;3.37;2.07;;;2.30;1.00;;;;;;5050172;28;20446;-54
2023/04/03 05:29:03;;;;;;;5.50;3.37;;;2.20;1.00;;;;;;5047914;28;20812;-55
2023/04/03 05:31:29;;;;;;;8.30;2.40;;;2.30;1.00;;;;;;5044042;28;20542;-55
2023/04/03 05:33:56;;;;;;;9.17;2.90;;;2.30;1.00;;;;;;5045575;28;20250;-54
2023/04/03 05:36:21;;;;;;;5.83;2.73;;;2.40;1.00;;;;;;5046274;28;20541;-53
2023/04/03 05:38:47;;;;;;;5.43;2.67;;;2.50;1.00;;;;;;5048197;28;20450;-56
2023/04/03 05:41:14;;;;;;;5.63;2.67;;;2.60;1.00;;;;;;5045749;28;20195;-54
2023/04/03 05:43:40;;;;;;;5.63;3.23;;;2.50;1.00;;;;;;5047129;28;20454;-54
2023/04/03 05:46:15;;;;;;;8.20;3.70;;;2.40;1.00;;;;;;5046777;28;20488;-53
2023/04/03 05:48:41;;;;;;;5.70;3.80;;;2.30;1.00;;;;;;5045332;28;20984;-53
2023/04/03 05:51:12;;;;;;;5.47;3.67;;;2.40;1.00;;;;;;5040855;28;20447;-55
2023/04/03 05:53:38;;;;;;;5.83;3.60;;;2.60;1.00;;;;;;5045603;28;20452;-53
2023/04/03 05:56:04;;;;;;;3.40;2.23;;;2.70;1.00;;;;;;5044008;28;21033;-54
2023/04/03 05:58:30;;;;;;;6.37;3.93;;;2.80;1.00;;;;;;5046231;28;20207;-53
2023/04/03 06:00:56;;;;;;;5.37;3.13;;;2.90;1.00;;;;;;5047983;28;20189;-55
2023/04/03 06:03:22;;;;;;;4.10;2.60;;;3.10;1.00;;;;;;5045107;28;20188;-55
2023/04/03 06:05:47;;;;;;;4.70;2.97;;;3.20;1.00;;;;;;5055048;28;20486;-53
2023/04/03 06:08:14;;;;;;;6.83;2.90;;;3.20;1.00;;;;;;5056809;28;20489;-55
2023/04/03 06:10:40;;;;;;;4.40;2.43;;;3.00;1.00;;;;;;5045982;28;20199;-55
2023/04/03 06:13:06;;;;;;;4.53;2.73;;;2.70;1.00;;;;;;5045940;28;21045;-55
2023/04/03 06:15:33;;;;;;;6.37;2.73;;;2.80;1.00;;;;;;5046140;28;20474;-56
2023/04/03 06:17:59;;;;;;;3.17;2.30;;;3.20;1.00;;;;;;5045858;28;20450;-53
2023/04/03 06:20:25;;;;;;;2.33;1.40;;;3.40;1.00;;;;;;5049040;28;20540;-55
2023/04/03 06:22:50;;;;;;;10.17;3.37;;;3.20;1.00;;;;;;5041872;28;20450;-54
2023/04/03 06:25:18;;;;;;;5.50;2.73;;;3.00;1.00;;;;;;5045071;28;20196;-54
2023/04/03 06:27:44;;;;;;;7.37;3.60;;;2.90;1.00;;;;;;5045421;28;20670;-53
2023/04/03 06:30:11;;;;;;;4.70;2.70;;;3.00;1.00;;;;;;5043975;28;20469;-53
2023/04/03 06:32:37;;;;;;;7.73;2.70;;;3.10;1.00;;;;;;5043123;28;20454;-53
2023/04/03 06:35:04;;;;;;;3.80;2.13;;;3.10;1.00;;;;;;5048326;28;20456;-55
2023/04/03 06:37:30;;;;;;;1.73;1.50;;;3.20;1.00;;;;;;5026804;28;20462;-55
2023/04/03 06:39:56;;;;;;;7.60;2.63;;;3.30;1.00;;;;;;5039935;28;20443;-52
2023/04/03 06:42:22;;;;;;;5.40;1.83;;;3.40;1.00;;;;;;5045566;28;20279;-54
2023/04/03 06:44:48;;;;;;;2.90;1.83;;;3.40;1.00;;;;;;5044553;28;20879;-55
2023/04/03 06:47:15;;;;;;;4.13;1.90;;;3.40;1.00;;;;;;5049717;28;20516;-53
2023/04/03 06:49:41;;;;;;;5.80;2.50;;;3.50;1.00;;;;;;5042275;28;20192;-55
2023/04/03 06:52:07;;;;;;;2.93;2.37;;;3.80;1.00;;;;;;5042138;28;20448;-54
2023/04/03 06:54:33;;;;;;;4.30;2.87;;;3.90;1.00;;;;;;5048917;28;20511;-56
2023/04/03 06:56:58;;;;;;;2.90;2.13;;;3.80;1.00;;;;;;5050491;28;20498;-52
2023/04/03 06:59:25;;;;;;;4.57;2.57;;;3.70;1.00;;;;;;5060816;28;20716;-56
2023/04/03 07:01:51;;;;;;;5.47;3.20;;;3.90;1.00;;;;;;5043215;28;20489;-53
2023/04/03 07:04:19;;;;;;;5.93;2.93;;;3.80;1.00;;;;;;5048364;28;20219;-53
2023/04/03 07:06:44;;;;;;;11.53;5.40;;;3.90;1.00;;;;;;5046849;28;20198;-54
2023/04/03 07:09:10;;;;;;;5.93;2.43;;;3.70;1.00;;;;;;5048415;28;20789;-54
2023/04/03 07:11:36;;;;;;;4.13;2.20;;;3.50;1.00;;;;;;5043043;28;20193;-53
2023/04/03 07:14:02;;;;;;;4.37;2.60;;;3.50;1.00;;;;;;5045513;28;20212;-54
2023/04/03 07:16:30;;;;;;;5.73;2.57;;;3.70;1.00;;;;;;5044101;28;20255;-53
2023/04/03 07:18:57;;;;;;;4.93;2.67;;;4.00;1.00;;;;;;5044859;28;20490;-53
2023/04/03 07:21:22;;;;;;;3.53;2.33;;;4.20;1.00;;;;;;5045922;28;20447;-55
2023/04/03 07:23:48;;;;;;;5.50;2.03;;;4.50;1.00;;;;;;5047913;28;20454;-55
2023/04/03 07:26:14;;;;;;;6.77;1.93;;;4.40;1.00;;;;;;5040406;28;20193;-54
2023/04/03 07:28:41;;;;;;;6.10;2.37;;;4.20;1.00;;;;;;5047413;28;20558;-54
2023/04/03 07:31:11;;;;;;;3.90;2.20;;;4.20;1.00;;;;;;5048423;28;20532;-53
2023/04/03 07:33:38;;;;;;;4.47;2.77;;;4.20;1.00;;;;;;5045541;28;20453;-55
2023/04/03 07:36:07;;;;;;;6.77;2.70;;;4.00;1.00;;;;;;5050874;28;20465;-55
2023/04/03 07:38:33;;;;;;;5.27;2.10;;;4.10;1.00;;;;;;5046622;28;20482;-54
2023/04/03 07:40:59;;;;;;;4.93;2.13;;;4.40;1.00;;;;;;5047556;28;20947;-52
2023/04/03 07:43:24;;;;;;;2.90;1.97;;;4.60;1.00;;;;;;5044408;28;20458;-54
2023/04/03 07:45:51;;;;;;;5.00;2.03;;;4.70;1.00;;;;;;5047650;28;20450;-54
2023/04/03 07:48:25;;;;;;;5.10;2.07;;;4.60;1.00;;;;;;5041806;28;20761;-53
2023/04/03 07:50:51;;;;;;;6.87;3.33;;;4.70;1.00;;;;;;5052099;28;20998;-55
2023/04/03 07:53:18;;;;;;;7.87;4.53;;;4.60;1.00;;;;;;5046763;28;20450;-54
2023/04/03 07:55:46;;;;;;;4.33;2.43;;;4.70;1.00;;;;;;5045229;28;20573;-55
2023/04/03 07:58:15;;;;;;;3.63;1.83;;;4.60;1.00;;;;;;5044556;28;20517;-55
2023/04/03 08:00:41;;;;;;;4.27;1.77;;;4.50;1.00;;;;;;5054151;28;20462;-53
2023/04/03 08:03:07;;;;;;;10.50;4.20;;;4.50;1.00;;;;;;5048270;28;20466;-54
2023/04/03 08:05:37;;;;;;;8.30;2.33;;;4.70;1.00;;;;;;5054208;28;20321;-54
2023/04/03 08:08:03;;;;;;;2.67;1.97;;;4.80;1.00;;;;;;5046080;28;20503;-55
2023/04/03 08:10:31;;;;;;;2.40;2.20;;;5.00;1.00;;;;;;5044605;28;20815;-55
2023/04/03 08:12:56;;;;;;;4.50;2.23;;;5.20;1.00;;;;;;5048917;28;20808;-54
2023/04/03 08:15:22;;;;;;;4.30;1.93;;;5.00;1.00;;;;;;5049850;28;20438;-54
2023/04/03 08:17:48;;;;;;;2.90;2.33;;;5.00;1.00;;;;;;5046393;28;20192;-52
2023/04/03 08:20:14;;;;;;;7.37;2.70;;;5.20;1.00;;;;;;5049577;28;20446;-54
2023/04/03 08:22:40;;;;;;;7.53;2.80;;;5.30;1.00;;;;;;5062903;28;20196;-54
2023/04/03 08:25:08;;;;;;;2.20;1.90;;;5.40;1.00;;;;;;5070097;28;20648;-54
2023/04/03 08:27:33;;;;;;;5.53;2.60;;;5.70;1.00;;;;;;5066751;28;20809;-54
2023/04/03 08:29:59;;;;;;;4.43;2.33;;;5.90;1.00;;;;;;5061141;28;20454;-55
2023/04/03 08:32:25;;;;;;;3.73;1.97;;;6.20;1.00;;;;;;5061368;28;20652;-54
2023/04/03 08:34:51;;;;;;;2.30;1.57;;;6.20;1.00;;;;;;5047138;28;20438;-55
2023/04/03 08:37:17;;;;;;;2.20;1.43;;;6.10;1.00;;;;;;5055106;28;20769;-54
2023/04/03 08:39:43;;;;;;;5.43;2.40;;;6.10;1.00;;;;;;5050002;28;20283;-53
2023/04/03 08:42:27;;;;;;;2.43;1.80;;;5.90;1.00;;;;;;5057442;28;20445;-54
2023/04/03 08:44:57;;;;;;;5.93;1.63;;;5.60;1.00;;;;;;5055742;28;20950;-54
2023/04/03 08:47:40;;;;;;;3.73;1.83;;;5.80;1.00;;;;;;5047650;28;20455;-54
2023/04/03 08:50:12;;;;;;;3.40;1.70;;;5.60;1.00;;;;;;5045020;28;20458;-54
2023/04/03 08:52:57;;;;;;;4.00;2.20;;;5.70;1.00;;;;;;5049196;28;20451;-54
2023/04/03 08:55:30;;;;;;;4.27;1.90;;;5.90;1.00;;;;;;5054943;28;20794;-55
2023/04/03 08:58:05;;;;;;;2.00;1.53;;;6.00;1.00;;;;;;5055522;28;20797;-55
2023/04/03 09:00:51;;;;;;;5.20;1.80;;;6.30;1.00;;;;;;5048813;28;20487;-53
2023/04/03 09:03:19;;;;;;;3.60;1.20;;;6.50;1.00;;;;;;5062239;28;20429;-53
2023/04/03 09:06:06;;;;;;;5.17;2.27;;;6.20;1.00;;;;;;5054746;28;20802;-54
2023/04/03 09:09:12;;;;;;;3.30;2.00;;;6.00;1.00;;;;;;5045791;28;20781;-53
2023/04/03 09:11:50;;;;;;;7.30;2.57;;;6.30;1.00;;;;;;5033181;28;20941;-54
2023/04/03 09:14:34;;;;;;;6.43;2.70;;;6.50;1.00;;;;;;5050931;28;20521;-53
2023/04/03 09:17:09;;;;;;;2.20;1.70;;;6.30;1.00;;;;;;5053560;28;20814;-55
2023/04/03 09:20:03;;;;;;;3.50;2.50;;;6.40;1.00;;;;;;5037645;28;20442;-54
2023/04/03 09:22:32;;;;;;;4.20;1.90;;;6.90;99.90;;;;;;5046017;28;20770;-54
2023/04/03 09:25:18;;;;;;;4.73;2.10;;;7.90;99.90;;;;;;5043760;28;20943;-56
2023/04/03 09:27:44;;;;;;;3.40;1.80;;;7.60;99.90;;;;;;5047983;28;20517;-55
2023/04/03 09:30:21;;;;;;;5.07;2.10;;;7.80;99.90;;;;;;5043030;28;20466;-53
2023/04/03 09:32:49;;;;;;;2.70;1.60;;;8.30;99.90;;;;;;5061931;28;20510;-55
2023/04/03 09:35:26;;;;;;;5.93;2.10;;;8.10;99.90;;;;;;5059238;28;20466;-55
2023/04/03 09:38:20;;;;;;;3.47;2.07;;;7.80;99.90;;;;;;5057591;28;20422;-56
2023/04/03 09:40:49;;;;;;;4.87;2.70;;;7.40;99.90;;;;;;5047930;28;20454;-53
2023/04/03 09:43:17;;;;;;;4.70;2.00;;;7.00;99.90;;;;;;5052398;28;20506;-54
2023/04/03 09:45:45;;;;;;;1.97;1.63;;;6.90;99.90;;;;;;5050649;28;20439;-54
2023/04/03 09:48:14;;;;;;;3.40;1.47;;;6.70;99.90;;;;;;5044200;28;20464;-55
2023/04/03 09:50:58;;;;;;;4.10;1.60;;;6.50;99.90;;;;;;5043442;28;20453;-54
2023/04/03 09:53:40;;;;;;;3.47;1.57;;;6.40;99.90;;;;;;5047459;28;20523;-57
2023/04/03 09:56:23;;;;;;;4.23;2.00;;;6.70;99.90;;;;;;5047146;28;21055;-56
2023/04/03 09:59:13;;;;;;;5.10;1.30;;;7.00;99.90;;;;;;5047635;28;20448;-54
2023/04/03 10:01:43;;;;;;;3.67;1.27;;;7.00;99.90;;;;;;5053845;28;20461;-55
2023/04/03 10:04:17;;;;;;;2.00;1.33;;;7.20;99.90;;;;;;5048689;28;20443;-54
2023/04/03 10:06:52;;;;;;;3.40;1.70;;;7.20;99.90;;;;;;5052561;28;20537;-54
2023/04/03 10:09:20;;;;;;;1.60;1.50;;;7.30;99.90;;;;;;5045033;28;20765;-55
2023/04/03 10:12:04;;;;;;;2.30;1.60;;;7.20;99.90;;;;;;5043102;28;20444;-55
2023/04/03 10:14:31;;;;;;;4.70;1.60;;;7.10;99.90;;;;;;5064302;28;20559;-56
2023/04/03 10:17:23;;;;;;;2.47;1.30;;;7.10;99.90;;;;;;5041209;28;20479;-55
2023/04/03 10:20:09;;;;;;;1.10;1.00;;;7.20;99.90;;;;;;5050783;28;20450;-56
2023/04/03 10:22:55;;;;;;;3.63;1.20;;;7.00;99.90;;;;;;5049769;28;20442;-56
2023/04/03 10:25:25;;;;;;;2.00;1.43;;;6.80;99.90;;;;;;5052290;28;20538;-58
2023/04/03 10:27:57;;;;;;;5.60;1.50;;;7.60;99.90;;;;;;5059642;28;20446;-56
2023/04/03 10:30:53;;;;;;;4.77;1.33;;;8.40;99.90;;;;;;5058111;28;20906;-57
2023/04/03 10:33:39;;;;;;;1.80;1.50;;;8.30;99.90;;;;;;5062286;28;20496;-57
2023/04/03 10:36:42;;;;;;;2.17;1.33;;;8.10;99.90;;;;;;5065832;28;20808;-56
2023/04/03 10:39:37;;;;;;;2.87;1.53;;;7.30;99.90;;;;;;5044779;28;20449;-56
2023/04/03 10:42:06;;;;;;;1.37;1.00;;;7.40;99.90;;;;;;5053052;28;20458;-55
2023/04/03 10:44:59;;;;;;;2.23;1.00;;;8.00;99.90;;;;;;5049232;28;20944;-56
2023/04/03 10:47:40;;;;;;;1.13;0.70;;;8.40;99.90;;;;;;5047359;28;20443;-55
2023/04/03 10:50:28;;;;;;;2.90;1.33;;;8.50;99.90;;;;;;5050262;28;20443;-58
2023/04/03 10:53:28;;;;;;;3.93;1.77;;;8.20;99.90;;;;;;5052793;28;21013;-57
2023/04/03 10:56:27;;;;;;;2.50;1.90;;;7.80;99.90;;;;;;5056804;28;20544;-55
2023/04/03 10:59:01;;;;;;;4.60;1.70;;;7.80;99.90;;;;;;5051381;28;20446;-56
2023/04/03 11:01:33;;;;;;;2.20;1.23;;;8.20;99.90;;;;;;5047463;28;20470;-55
2023/04/03 11:04:03;;;;;;;1.60;0.90;;;8.60;99.90;;;;;;5046902;28;20618;-54
2023/04/03 11:06:40;;;;;;;3.33;1.53;;;9.10;99.90;;;;;;5045877;28;21974;-55
2023/04/03 11:09:21;;;;;;;2.00;1.00;;;9.30;99.90;;;;;;5056204;28;20443;-55
2023/04/03 11:11:49;;;;;;;1.60;0.97;;;8.50;99.90;;;;;;5048308;28;20446;-55
2023/04/03 11:14:35;;;;;;;6.70;2.80;;;8.40;99.90;;;;;;5049195;28;20438;-53
2023/04/03 11:17:19;;;;;;;7.37;1.87;;;8.60;99.90;;;;;;5047716;28;20463;-54
2023/04/03 11:20:08;;;;;;;2.83;1.50;;;8.50;99.90;;;;;;5043453;28;20439;-53
2023/04/03 11:22:40;;;;;;;3.77;1.67;;;8.40;99.90;;;;;;5046961;28;20574;-54
2023/04/03 11:25:11;;;;;;;2.10;1.00;;;8.20;99.90;;;;;;5048565;28;20883;-54
2023/04/03 11:27:45;;;;;;;3.43;1.57;;;8.00;99.90;;;;;;5046974;28;20439;-55
2023/04/03 11:30:49;;;;;;;4.30;1.40;;;8.20;99.90;;;;;;5051440;28;20895;-52
2023/04/03 11:33:27;;;;;;;1.93;1.10;;;8.50;99.90;;;;;;5049320;28;20469;-56
2023/04/03 11:35:57;;;;;;;1.27;0.87;;;8.10;99.90;;;;;;5051287;28;20462;-55
2023/04/03 11:38:30;;;;;;;3.80;1.17;;;8.00;99.90;;;;;;5049370;28;20771;-53
2023/04/03 11:40:57;;;;;;;3.67;1.33;;;8.00;99.90;;;;;;5050627;28;20534;-55
2023/04/03 11:43:26;;;;;;;4.30;1.47;;;7.70;99.90;;;;;;5047189;28;20505;-55
2023/04/03 11:46:03;;;;;;;3.90;1.20;;;7.70;99.90;;;;;;5047367;28;20458;-53
2023/04/03 11:48:31;;;;;;;2.87;1.10;;;8.00;99.90;;;;;;5048019;28;20940;-54
2023/04/03 11:51:12;;;;;;;1.83;1.10;;;8.20;99.90;;;;;;5052175;28;20503;-54
2023/04/03 11:53:40;;;;;;;1.70;1.47;;;8.50;99.90;;;;;;5051724;28;20434;-54
2023/04/03 11:56:27;;;;;;;7.57;1.80;;;7.90;99.90;;;;;;5046152;28;20445;-55
2023/04/03 11:59:05;;;;;;;6.10;4.90;;;7.40;99.90;;;;;;5045826;28;20797;-55
2023/04/03 12:01:50;;;;;;;3.27;1.60;;;7.50;99.90;;;;;;5052297;28;20928;-56
2023/04/03 12:04:18;;;;;;;5.57;1.63;;;7.70;99.90;;;;;;5053005;28;20441;-55
2023/04/03 12:06:48;;;;;;;5.93;1.50;;;7.80;99.90;;;;;;5051675;28;20453;-54
2023/04/03 12:09:23;;;;;;;3.73;2.50;;;7.90;99.90;;;;;;5048253;28;20495;-52
2023/04/03 12:11:49;;;;;;;2.60;1.20;;;8.00;99.90;;;;;;5054683;28;20441;-53
2023/04/03 12:14:16;;;;;;;3.50;1.57;;;8.00;99.90;;;;;;5047143;28;20422;-56
2023/04/03 12:16:44;;;;;;;2.47;1.53;;;8.30;99.90;;;;;;5045438;28;20751;-54
2023/04/03 12:19:28;;;;;;;1.70;1.00;;;8.40;99.90;;;;;;5056804;28;20454;-55
2023/04/03 12:21:58;;;;;;;4.70;1.37;;;8.50;99.90;;;;;;5053263;28;20875;-53
2023/04/03 12:24:29;;;;;;;4.73;3.00;;;8.90;99.90;;;;;;5057257;28;20928;-53
2023/04/03 12:27:00;;;;;;;5.40;2.20;;;8.70;99.90;;;;;;5047649;28;20469;-54
2023/04/03 12:29:34;;;;;;;4.10;1.87;;;8.50;99.90;;;;;;5053295;28;20961;-53
2023/04/03 12:32:40;;;;;;;2.10;1.13;;;8.30;99.90;;;;;;5037259;28;20511;-55
2023/04/03 12:35:26;;;;;;;1.80;1.10;;;8.20;99.90;;;;;;5032568;28;20440;-54
2023/04/03 12:38:18;;;;;;;3.07;1.10;;;8.10;99.90;;;;;;5058400;28;20449;-53
2023/04/03 12:40:52;;;;;;;2.00;1.23;;;7.90;99.90;;;;;;5049853;28;20499;-55
2023/04/03 12:43:34;;;;;;;3.73;1.47;;;7.90;99.90;;;;;;5060522;28;20429;-55
2023/04/03 12:46:02;;;;;;;1.60;1.20;;;7.90;99.90;;;;;;5046699;28;20481;-55
2023/04/03 12:48:47;;;;;;;1.70;1.13;;;7.70;99.90;;;;;;5071355;28;20441;-52
2023/04/03 12:51:21;;;;;;;2.03;1.40;;;7.60;99.90;;;;;;5043817;28;20525;-53
2023/04/03 12:53:48;;;;;;;3.73;1.80;;;7.50;99.90;;;;;;5051507;28;20812;-54
2023/04/03 12:56:29;;;;;;;2.70;1.20;;;7.60;99.90;;;;;;5044947;28;20459;-54
2023/04/03 12:59:16;;;;;;;1.83;1.33;;;7.90;99.90;;;;;;5049184;28;20449;-56
2023/04/03 13:01:42;;;;;;;2.40;1.13;;;8.10;99.90;;;;;;5045291;28;20439;-54
2023/04/03 13:04:12;;;;;;;1.27;1.00;;;7.80;99.90;;;;;;5045818;28;20529;-56
2023/04/03 13:06:43;;;;;;;1.00;0.90;;;7.80;99.90;;;;;;5048183;28;20434;-53
2023/04/03 13:09:21;;;;;;;4.33;0.93;;;7.50;99.90;;;;;;5044758;28;20451;-55
2023/04/03 13:11:48;;;;;;;1.60;1.50;;;7.20;99.90;;;;;;5041025;28;20482;-54
2023/04/03 13:14:22;;;;;;;4.90;2.40;;;7.50;99.90;;;;;;5042620;28;20435;-54
2023/04/03 13:16:59;;;;;;;5.40;1.63;;;7.90;99.90;;;;;;5058960;28;20469;-55
2023/04/03 13:19:27;;;;;;;1.23;0.90;;;8.20;99.90;;;;;;5063371;28;23677;-55
2023/04/03 13:22:38;;;;;;;2.10;1.40;;;8.10;99.90;;;;;;5049584;28;20472;-55